createdAt,value
2022-09-17T00:02:10.241Z,3.85
2022-09-17T00:04:36.826Z,3.00
2022-09-17T00:07:04.221Z,2.97
2022-09-17T00:09:30.916Z,2.72
2022-09-17T00:11:57.374Z,2.70
2022-09-17T00:14:23.806Z,2.78
2022-09-17T00:16:50.261Z,3.10
2022-09-17T00:19:19.945Z,2.60
2022-09-17T00:21:47.353Z,3.05
2022-09-17T00:24:14.887Z,2.53
2022-09-17T00:26:41.880Z,2.85
2022-09-17T00:29:08.786Z,3.25
2022-09-17T00:31:35.790Z,2.65
2022-09-17T00:34:03.964Z,2.90
2022-09-17T00:36:31.017Z,2.47
2022-09-17T00:38:58.931Z,2.83
2022-09-17T00:41:29.155Z,2.95
2022-09-17T00:43:58.099Z,2.65
2022-09-17T00:46:39.066Z,3.60
2022-09-17T00:49:16.610Z,2.83
2022-09-17T00:51:59.648Z,3.28
2022-09-17T00:54:27.656Z,2.90
2022-09-17T00:56:54.086Z,2.88
2022-09-17T00:59:22.363Z,3.28
2022-09-17T01:01:48.968Z,3.28
2022-09-17T01:04:19.805Z,3.05
2022-09-17T01:07:34.071Z,3.15
2022-09-17T01:10:16.740Z,3.20
2022-09-17T01:13:01.895Z,2.75
2022-09-17T01:15:59.144Z,2.97
2022-09-17T01:18:32.124Z,2.90
2022-09-17T01:21:28.023Z,2.85
2022-09-17T01:24:11.985Z,2.35
2022-09-17T01:26:53.126Z,2.55
2022-09-17T01:29:34.016Z,2.95
2022-09-17T01:32:07.649Z,2.38
2022-09-17T01:34:45.588Z,2.17
2022-09-17T01:37:25.882Z,2.47
2022-09-17T01:40:29.659Z,2.40
2022-09-17T01:43:08.212Z,2.50
2022-09-17T01:45:55.267Z,2.60
2022-09-17T01:48:29.482Z,2.90
2022-09-17T01:51:08.789Z,2.53
2022-09-17T01:53:42.306Z,2.63
2022-09-17T01:56:13.325Z,2.30
2022-09-17T01:58:47.567Z,2.25
2022-09-17T02:01:18.079Z,2.28
2022-09-17T02:03:56.728Z,3.88
2022-09-17T02:06:29.874Z,2.97
2022-09-17T02:09:09.999Z,2.95
2022-09-17T02:11:41.240Z,3.13
2022-09-17T02:14:19.164Z,3.38
2022-09-17T02:16:51.924Z,3.42
2022-09-17T02:19:26.989Z,3.65
2022-09-17T02:22:11.822Z,3.10
2022-09-17T02:25:04.557Z,3.13
2022-09-17T02:27:51.955Z,3.33
2022-09-17T02:30:18.689Z,3.33
2022-09-17T02:32:45.129Z,2.97
2022-09-17T02:35:13.837Z,3.40
2022-09-17T02:37:42.114Z,3.65
2022-09-17T02:40:10.556Z,3.75
2022-09-17T02:43:04.937Z,3.75
2022-09-17T02:45:49.589Z,3.70
2022-09-17T02:48:33.284Z,3.25
2022-09-17T02:51:26.204Z,4.28
2022-09-17T02:54:12.122Z,3.75
2022-09-17T02:56:56.344Z,3.55
2022-09-17T02:59:29.400Z,3.58
2022-09-17T03:02:12.820Z,4.63
2022-09-17T03:04:41.294Z,3.72
2022-09-17T03:07:11.915Z,4.35
2022-09-17T03:09:38.865Z,3.97
2022-09-17T03:12:05.622Z,3.95
2022-09-17T03:14:32.070Z,3.83
2022-09-17T03:16:58.564Z,3.60
2022-09-17T03:19:25.026Z,4.22
2022-09-17T03:21:51.496Z,3.55
2022-09-17T03:24:17.818Z,3.28
2022-09-17T03:26:44.425Z,2.80
2022-09-17T03:29:10.761Z,2.50
2022-09-17T03:31:37.182Z,2.47
2022-09-17T03:34:03.658Z,2.90
2022-09-17T03:36:30.053Z,2.60
2022-09-17T03:38:57.432Z,2.80
2022-09-17T03:41:24.941Z,2.60
2022-09-17T03:43:51.386Z,2.85
2022-09-17T03:46:18.560Z,2.65
2022-09-17T03:48:45.226Z,2.53
2022-09-17T03:51:12.279Z,3.00
2022-09-17T03:53:38.674Z,2.90
2022-09-17T03:56:06.893Z,2.58
2022-09-17T03:58:33.622Z,3.17
2022-09-17T04:01:00.271Z,4.28
2022-09-17T04:03:28.174Z,3.95
2022-09-17T04:05:54.797Z,3.40
2022-09-17T04:08:21.826Z,4.07
2022-09-17T04:10:48.828Z,3.00
2022-09-17T04:13:16.790Z,3.70
2022-09-17T04:15:43.364Z,3.20
2022-09-17T04:18:10.101Z,3.72
2022-09-17T04:20:36.494Z,3.38
2022-09-17T04:23:03.066Z,3.13
2022-09-17T04:25:29.462Z,2.90
2022-09-17T04:27:55.781Z,2.80
2022-09-17T04:30:23.013Z,2.78
2022-09-17T04:32:49.446Z,2.70
2022-09-17T04:35:16.011Z,2.47
2022-09-17T04:37:42.397Z,2.90
2022-09-17T04:40:09.489Z,2.75
2022-09-17T04:42:35.895Z,2.97
2022-09-17T04:45:02.249Z,2.85
2022-09-17T04:47:28.588Z,3.15
2022-09-17T04:49:54.918Z,2.83
2022-09-17T04:52:21.275Z,3.03
2022-09-17T04:54:47.622Z,3.88
2022-09-17T04:57:13.953Z,3.45
2022-09-17T04:59:40.278Z,3.15
2022-09-17T05:02:06.619Z,3.33
2022-09-17T05:04:33.005Z,3.70
2022-09-17T05:07:00.217Z,3.58
2022-09-17T05:09:26.963Z,4.32
2022-09-17T05:11:53.276Z,3.50
2022-09-17T05:14:19.609Z,3.17
2022-09-17T05:16:45.953Z,3.28
2022-09-17T05:19:12.316Z,3.78
2022-09-17T05:21:38.646Z,3.97
2022-09-17T05:24:05.121Z,5.20
2022-09-17T05:26:31.494Z,4.65
2022-09-17T05:28:58.006Z,5.50
2022-09-17T05:31:24.705Z,3.97
2022-09-17T05:33:51.179Z,3.97
2022-09-17T05:36:17.511Z,4.35
2022-09-17T05:38:43.895Z,4.70
2022-09-17T05:41:10.247Z,3.05
2022-09-17T05:43:36.592Z,4.10
2022-09-17T05:46:04.390Z,3.70
2022-09-17T05:48:30.774Z,3.83
2022-09-17T05:50:57.246Z,3.60
2022-09-17T05:53:23.929Z,3.90
2022-09-17T05:55:50.254Z,4.18
2022-09-17T05:58:19.178Z,3.38
2022-09-17T06:00:48.884Z,3.80
2022-09-17T06:03:17.637Z,3.33
2022-09-17T06:05:52.147Z,3.83
2022-09-17T06:08:18.604Z,3.25
2022-09-17T06:10:44.956Z,4.35
2022-09-17T06:13:11.401Z,3.95
2022-09-17T06:15:37.799Z,3.28
2022-09-17T06:18:04.172Z,3.22
2022-09-17T06:20:30.530Z,3.30
2022-09-17T06:22:57.732Z,3.20
2022-09-17T06:25:25.238Z,3.85
2022-09-17T06:27:51.815Z,3.53
2022-09-17T06:30:18.284Z,4.10
2022-09-17T06:32:44.585Z,3.97
2022-09-17T06:35:10.918Z,3.60
2022-09-17T06:37:40.212Z,3.45
2022-09-17T06:40:08.347Z,3.95
2022-09-17T06:42:34.845Z,3.55
2022-09-17T06:45:06.979Z,3.55
2022-09-17T06:47:35.005Z,4.10
2022-09-17T06:50:01.711Z,3.70
2022-09-17T06:52:28.223Z,4.05
2022-09-17T06:54:54.562Z,4.35
2022-09-17T06:57:20.953Z,3.90
2022-09-17T06:59:47.316Z,4.07
2022-09-17T07:02:13.718Z,3.70
2022-09-17T07:04:40.175Z,4.25
2022-09-17T07:07:06.550Z,3.70
2022-09-17T07:09:32.873Z,4.63
2022-09-17T07:11:59.436Z,3.80
2022-09-17T07:14:25.805Z,3.30
2022-09-17T07:16:52.642Z,3.40
2022-09-17T07:19:19.010Z,3.55
2022-09-17T07:21:48.409Z,3.22
2022-09-17T07:24:14.740Z,3.65
2022-09-17T07:26:41.122Z,3.83
2022-09-17T07:29:07.965Z,4.50
2022-09-17T07:31:34.397Z,3.88
2022-09-17T07:34:01.623Z,3.47
2022-09-17T07:36:28.056Z,4.05
2022-09-17T07:38:54.383Z,3.70
2022-09-17T07:41:20.724Z,3.20
2022-09-17T07:43:47.114Z,2.80
2022-09-17T07:46:19.128Z,3.08
2022-09-17T07:48:46.672Z,3.72
2022-09-17T07:51:21.940Z,3.38
2022-09-17T07:53:55.163Z,3.97
2022-09-17T07:56:22.617Z,3.55
2022-09-17T07:58:49.198Z,3.63
2022-09-17T08:01:17.140Z,3.50
2022-09-17T08:03:48.619Z,4.63
2022-09-17T08:06:17.666Z,4.07
2022-09-17T08:08:44.077Z,3.75
2022-09-17T08:11:38.228Z,3.70
2022-09-17T08:14:05.505Z,4.55
2022-09-17T08:16:32.152Z,4.28
2022-09-17T08:18:58.695Z,4.40
2022-09-17T08:21:25.358Z,4.10
2022-09-17T08:23:51.850Z,4.30
2022-09-17T08:26:22.599Z,3.97
2022-09-17T08:28:55.451Z,3.97
2022-09-17T08:31:24.230Z,3.55
2022-09-17T08:33:51.089Z,2.88
2022-09-17T08:36:19.162Z,2.17
2022-09-17T08:38:46.099Z,2.15
2022-09-17T08:41:52.609Z,2.65
2022-09-17T08:44:39.145Z,2.35
2022-09-17T08:47:18.343Z,2.40
2022-09-17T08:49:52.121Z,2.42
2022-09-17T08:52:34.436Z,1.92
2022-09-17T08:55:31.269Z,1.80
2022-09-17T08:58:27.236Z,2.45
2022-09-17T09:01:07.888Z,1.60
2022-09-17T09:04:00.501Z,1.88
2022-09-17T09:06:31.810Z,1.60
2022-09-17T09:11:31.398Z,1.67
2022-09-17T09:14:20.089Z,2.15
2022-09-17T09:16:48.216Z,2.35
2022-09-17T09:19:21.811Z,2.85
2022-09-17T09:22:05.869Z,2.65
2022-09-17T09:25:03.169Z,3.33
2022-09-17T09:27:37.365Z,3.13
2022-09-17T09:30:09.650Z,3.90
2022-09-17T09:32:50.486Z,3.90
2022-09-17T09:35:20.860Z,4.00
2022-09-17T09:37:57.110Z,4.32
2022-09-17T09:40:36.065Z,4.30
2022-09-17T09:43:16.253Z,4.28
2022-09-17T09:46:00.285Z,3.90
2022-09-17T09:48:48.070Z,2.88
2022-09-17T09:51:33.207Z,3.33
2022-09-17T09:54:32.298Z,4.32
2022-09-17T09:57:07.435Z,4.03
2022-09-17T09:59:35.916Z,4.70
2022-09-17T10:02:03.018Z,4.03
2022-09-17T10:04:32.175Z,4.15
2022-09-17T10:07:11.394Z,3.97
2022-09-17T10:09:44.798Z,5.47
2022-09-17T10:12:11.084Z,5.75
2022-09-17T10:14:39.241Z,5.03
2022-09-17T10:17:26.083Z,4.93
2022-09-17T10:20:12.102Z,4.32
2022-09-17T10:22:44.585Z,5.50
2022-09-17T10:25:30.378Z,4.95
2022-09-17T10:27:59.754Z,4.00
2022-09-17T10:30:27.429Z,4.30
2022-09-17T10:33:18.682Z,4.85
2022-09-17T10:36:06.258Z,4.38
2022-09-17T10:38:41.281Z,4.45
2022-09-17T10:41:13.854Z,4.60
2022-09-17T10:43:41.376Z,3.67
2022-09-17T10:46:17.192Z,3.55
2022-09-17T10:48:50.805Z,3.95
2022-09-17T10:51:23.923Z,3.70
2022-09-17T10:54:06.048Z,3.50
2022-09-17T10:56:37.631Z,2.72
2022-09-17T10:59:33.922Z,3.13
2022-09-17T11:02:03.294Z,1.73
2022-09-17T11:04:40.206Z,1.70
2022-09-17T11:07:47.626Z,1.70
2022-09-17T11:10:25.116Z,2.25
2022-09-17T11:13:17.656Z,2.30
2022-09-17T11:15:58.324Z,2.47
2022-09-17T11:18:40.866Z,3.30
2022-09-17T11:21:14.708Z,3.15
2022-09-17T11:24:05.581Z,2.47
2022-09-17T11:27:09.401Z,2.78
2022-09-17T11:29:54.631Z,2.10
2022-09-17T11:32:34.458Z,2.60
2022-09-17T11:35:12.816Z,2.33
2022-09-17T11:37:48.836Z,3.05
2022-09-17T11:40:26.572Z,2.38
2022-09-17T11:43:02.510Z,2.35
2022-09-17T11:45:53.500Z,2.50
2022-09-17T11:48:25.313Z,2.28
2022-09-17T11:51:04.766Z,2.15
2022-09-17T11:53:57.530Z,2.65
2022-09-17T11:56:34.042Z,2.60
2022-09-17T11:59:11.364Z,3.28
2022-09-17T12:01:49.323Z,2.45
2022-09-17T12:04:50.498Z,2.10
2022-09-17T12:07:36.277Z,2.28
2022-09-17T12:10:39.881Z,2.63
2022-09-17T12:13:51.418Z,2.22
2022-09-17T12:16:38.930Z,1.80
2022-09-17T12:19:23.467Z,1.90
2022-09-17T12:21:54.882Z,2.10
2022-09-17T12:24:32.111Z,2.50
2022-09-17T12:27:30.504Z,2.10
2022-09-17T12:30:04.834Z,1.70
2022-09-17T12:33:03.110Z,1.70
2022-09-17T12:36:03.401Z,3.65
2022-09-17T12:39:02.647Z,1.30
2022-09-17T12:42:06.164Z,1.75
2022-09-17T12:44:49.224Z,0.85
2022-09-17T12:47:46.397Z,1.20
2022-09-17T12:50:37.883Z,0.90
2022-09-17T12:53:23.240Z,0.88
2022-09-17T12:56:27.955Z,1.15
2022-09-17T12:59:00.569Z,1.70
2022-09-17T13:01:38.815Z,2.03
2022-09-17T13:04:59.491Z,1.48
2022-09-17T13:07:52.508Z,1.70
2022-09-17T13:10:27.036Z,1.35
2022-09-17T13:13:13.129Z,1.02
2022-09-17T13:16:01.365Z,0.70
2022-09-17T13:18:53.490Z,1.00
2022-09-17T13:21:52.800Z,1.58
2022-09-17T13:24:22.516Z,1.30
2022-09-17T13:26:49.246Z,1.10
2022-09-17T13:29:43.675Z,1.35
2022-09-17T13:32:32.820Z,1.50
2022-09-17T13:35:11.531Z,1.50
2022-09-17T13:37:54.966Z,1.20
2022-09-17T13:40:24.335Z,1.38
2022-09-17T13:43:13.836Z,1.70
2022-09-17T13:45:58.537Z,1.75
2022-09-17T13:48:28.651Z,1.65
2022-09-17T13:50:55.444Z,2.03
2022-09-17T13:53:26.893Z,1.90
2022-09-17T13:55:55.899Z,2.03
2022-09-17T13:58:27.623Z,2.17
2022-09-17T14:01:07.734Z,2.70
2022-09-17T14:03:34.249Z,2.17
2022-09-17T14:06:11.105Z,2.65
2022-09-17T14:08:47.843Z,2.05
2022-09-17T14:11:23.608Z,2.00
2022-09-17T14:13:50.991Z,6.25
2022-09-17T14:16:43.211Z,3.00
2022-09-17T14:19:15.424Z,2.00
2022-09-17T14:21:59.551Z,1.38
2022-09-17T14:24:35.076Z,0.70
2022-09-17T14:27:07.538Z,0.80
2022-09-17T14:29:50.167Z,1.50
2022-09-17T14:32:21.710Z,1.63
2022-09-17T14:34:49.628Z,2.10
2022-09-17T14:37:20.564Z,1.33
2022-09-17T14:39:48.926Z,1.10
2022-09-17T14:42:21.686Z,0.80
2022-09-17T14:44:58.717Z,0.77
2022-09-17T14:47:26.856Z,0.70
2022-09-17T14:49:54.312Z,0.68
2022-09-17T14:52:32.574Z,0.52
2022-09-17T14:55:26.470Z,1.00
2022-09-17T14:57:54.998Z,0.70
2022-09-17T15:00:28.224Z,0.70
2022-09-17T15:03:00.373Z,0.55
2022-09-17T15:05:29.622Z,0.43
2022-09-17T15:08:07.471Z,0.60
2022-09-17T15:10:36.898Z,0.90
2022-09-17T15:13:07.118Z,0.80
2022-09-17T15:15:35.016Z,1.30
2022-09-17T15:18:01.379Z,0.70
2022-09-17T15:20:31.163Z,1.10
2022-09-17T15:23:23.598Z,1.02
2022-09-17T15:25:54.694Z,0.90
2022-09-17T15:28:31.005Z,1.02
2022-09-17T15:30:57.555Z,0.80
2022-09-17T15:33:24.450Z,1.15
2022-09-17T15:36:09.546Z,1.17
2022-09-17T15:38:36.787Z,1.13
2022-09-17T15:41:30.977Z,1.52
2022-09-17T15:44:31.390Z,1.40
2022-09-17T15:47:36.711Z,1.50
2022-09-17T15:50:15.705Z,1.50
2022-09-17T15:52:42.532Z,1.67
2022-09-17T15:55:38.174Z,1.92
2022-09-17T15:58:18.906Z,1.63
2022-09-17T16:00:45.605Z,1.50
2022-09-17T16:03:33.955Z,1.45
2022-09-17T16:06:04.002Z,1.63
2022-09-17T16:08:34.917Z,1.98
2022-09-17T16:11:01.279Z,1.20
2022-09-17T16:13:28.779Z,1.65
2022-09-17T16:15:55.315Z,1.80
2022-09-17T16:18:21.698Z,1.67
2022-09-17T16:20:48.065Z,1.83
2022-09-17T16:23:14.491Z,1.75
2022-09-17T16:25:41.734Z,1.60
2022-09-17T16:28:14.225Z,1.40
2022-09-17T16:30:44.009Z,1.60
2022-09-17T16:33:12.106Z,1.98
2022-09-17T16:35:38.620Z,1.83
2022-09-17T16:38:05.205Z,1.60
2022-09-17T16:40:31.669Z,1.80
2022-09-17T16:43:03.085Z,2.72
2022-09-17T16:47:56.744Z,2.28
2022-09-17T16:50:23.902Z,2.88
2022-09-17T16:52:50.648Z,3.08
2022-09-17T16:55:18.105Z,3.08
2022-09-17T16:57:44.637Z,2.85
2022-09-17T17:00:16.071Z,2.33
2022-09-17T17:02:43.814Z,2.40
2022-09-17T17:05:13.089Z,3.35
2022-09-17T17:07:39.502Z,2.38
2022-09-17T17:10:09.392Z,2.53
2022-09-17T17:12:37.405Z,2.15
2022-09-17T17:15:06.120Z,2.95
2022-09-17T17:17:35.526Z,2.83
2022-09-17T17:20:07.637Z,3.08
2022-09-17T17:22:34.161Z,3.55
2022-09-17T17:25:00.634Z,2.38
2022-09-17T17:27:27.063Z,2.38
2022-09-17T17:29:53.423Z,2.45
2022-09-17T17:32:19.834Z,2.53
2022-09-17T17:34:46.196Z,2.60
2022-09-17T17:37:14.212Z,2.28
2022-09-17T17:39:40.960Z,2.53
2022-09-17T17:42:08.003Z,2.90
2022-09-17T17:44:34.542Z,2.60
2022-09-17T17:47:01.850Z,2.40
2022-09-17T17:49:28.261Z,3.45
2022-09-17T17:51:54.664Z,3.08
2022-09-17T17:54:21.936Z,3.05
2022-09-17T17:56:48.613Z,2.65
2022-09-17T17:59:14.956Z,2.63
2022-09-17T18:01:41.352Z,3.17
2022-09-17T18:04:08.379Z,2.80
2022-09-17T18:06:34.833Z,2.20
2022-09-17T18:09:01.709Z,3.50
2022-09-17T18:11:28.598Z,2.70
2022-09-17T18:13:56.897Z,3.05
2022-09-17T18:16:24.358Z,2.00
2022-09-17T18:18:50.772Z,3.80
2022-09-17T18:21:19.429Z,5.88
2022-09-17T18:23:46.766Z,1.63
2022-09-17T18:26:21.453Z,1.17
2022-09-17T18:28:48.490Z,1.42
2022-09-17T18:31:22.125Z,1.20
2022-09-17T18:33:59.928Z,1.40
2022-09-17T18:36:28.416Z,1.85
2022-09-17T18:39:16.722Z,1.92
2022-09-17T18:41:47.636Z,1.52
2022-09-17T18:44:14.023Z,2.22
2022-09-17T18:46:42.416Z,1.80
2022-09-17T18:49:08.899Z,1.40
2022-09-17T18:51:35.310Z,1.23
2022-09-17T18:54:03.051Z,1.42
2022-09-17T18:56:32.880Z,1.60
2022-09-17T18:59:02.392Z,1.58
2022-09-17T19:01:32.503Z,1.70
2022-09-17T19:03:59.694Z,2.00
2022-09-17T19:06:27.613Z,1.77
2022-09-17T19:08:55.765Z,1.60
2022-09-17T19:11:22.084Z,1.65
2022-09-17T19:13:51.248Z,1.77
2022-09-17T19:16:17.767Z,1.70
2022-09-17T19:18:44.270Z,1.55
2022-09-17T19:21:16.066Z,1.50
2022-09-17T19:23:44.765Z,1.38
2022-09-17T19:26:14.050Z,1.80
2022-09-17T19:28:40.654Z,1.50
2022-09-17T19:31:09.524Z,1.73
2022-09-17T19:33:36.192Z,2.15
2022-09-17T19:36:04.787Z,1.35
2022-09-17T19:38:31.474Z,2.58
2022-09-17T19:41:07.117Z,1.75
2022-09-17T19:43:33.641Z,1.83
2022-09-17T19:46:05.555Z,1.83
2022-09-17T19:48:33.086Z,1.92
2022-09-17T19:50:59.474Z,2.10
2022-09-17T19:53:25.903Z,2.30
2022-09-17T19:55:52.332Z,2.10
2022-09-17T19:58:18.771Z,2.20
2022-09-17T20:00:45.219Z,2.00
2022-09-17T20:03:12.328Z,2.75
2022-09-17T20:05:38.748Z,2.40
2022-09-17T20:08:05.184Z,3.50
2022-09-17T20:10:36.330Z,2.65
2022-09-17T20:13:03.260Z,2.45
2022-09-17T20:15:29.688Z,2.10
2022-09-17T20:17:56.055Z,1.60
2022-09-17T20:20:28.156Z,2.10
2022-09-17T20:22:55.861Z,1.92
2022-09-17T20:25:24.030Z,1.70
2022-09-17T20:27:50.434Z,1.60
2022-09-17T20:30:16.843Z,2.10
2022-09-17T20:32:43.190Z,1.60
2022-09-17T20:35:09.526Z,1.60
2022-09-17T20:38:23.203Z,1.65
2022-09-17T20:40:22.291Z,1.60
2022-09-17T20:42:48.739Z,1.63
2022-09-17T20:45:15.079Z,1.17
2022-09-17T20:47:41.714Z,1.05
2022-09-17T20:50:08.368Z,1.38
2022-09-17T20:52:34.734Z,1.20
2022-09-17T20:55:01.094Z,0.93
2022-09-17T20:57:27.477Z,1.23
2022-09-17T20:59:56.657Z,1.17
2022-09-17T21:02:23.134Z,1.30
2022-09-17T21:04:53.556Z,1.73
2022-09-17T21:07:20.516Z,1.30
2022-09-17T21:09:47.175Z,1.48
2022-09-17T21:12:13.565Z,1.60
2022-09-17T21:14:39.939Z,1.48
2022-09-17T21:17:06.408Z,2.08
2022-09-17T21:19:32.837Z,1.80
2022-09-17T21:21:59.174Z,1.25
2022-09-17T21:24:25.606Z,2.28
2022-09-17T21:26:53.963Z,1.92
2022-09-17T21:29:20.705Z,2.35
2022-09-17T21:31:47.274Z,2.03
2022-09-17T21:34:14.180Z,1.50
2022-09-17T21:36:42.051Z,2.05
2022-09-17T21:39:14.578Z,2.03
2022-09-17T21:41:42.952Z,1.90
2022-09-17T21:44:11.353Z,2.38
2022-09-17T21:46:38.480Z,1.92
2022-09-17T21:49:05.466Z,2.17
2022-09-17T21:51:36.453Z,2.55
2022-09-17T21:54:08.559Z,1.90
2022-09-17T21:56:35.374Z,1.30
2022-09-17T21:59:06.233Z,1.20
2022-09-17T22:01:42.135Z,1.25
2022-09-17T22:04:12.479Z,1.10
2022-09-17T22:06:40.073Z,1.13
2022-09-17T22:09:08.274Z,0.77
2022-09-17T22:11:37.085Z,0.85
2022-09-17T22:14:10.934Z,1.00
2022-09-17T22:16:39.761Z,1.10
2022-09-17T22:19:07.153Z,0.82
2022-09-17T22:21:36.399Z,1.20
2022-09-17T22:24:04.419Z,1.42
2022-09-17T22:26:34.298Z,1.27
2022-09-17T22:29:03.448Z,1.05
2022-09-17T22:31:30.266Z,1.05
2022-09-17T22:33:56.705Z,0.90
2022-09-17T22:36:25.228Z,1.42
2022-09-17T22:38:54.468Z,1.20
2022-09-17T22:41:29.349Z,1.33
2022-09-17T22:43:58.765Z,1.33
2022-09-17T22:46:27.791Z,1.50
2022-09-17T22:48:54.661Z,1.77
2022-09-17T22:51:21.233Z,1.50
2022-09-17T22:53:47.695Z,2.60
2022-09-17T22:56:17.249Z,1.90
2022-09-17T22:58:44.317Z,2.42
2022-09-17T23:01:13.827Z,1.90
2022-09-17T23:03:40.745Z,2.60
2022-09-17T23:06:12.271Z,2.05
2022-09-17T23:08:39.391Z,2.63
2022-09-17T23:11:08.624Z,2.53
2022-09-17T23:13:35.736Z,3.47
2022-09-17T23:16:08.059Z,2.83
2022-09-17T23:18:35.977Z,2.45
2022-09-17T23:21:08.459Z,2.30
2022-09-17T23:23:36.014Z,2.67
2022-09-17T23:26:04.837Z,2.70
2022-09-17T23:28:31.337Z,2.60
2022-09-17T23:30:57.874Z,3.15
2022-09-17T23:33:24.213Z,2.58
2022-09-17T23:35:50.543Z,2.70
2022-09-17T23:38:16.856Z,2.70
2022-09-17T23:40:43.247Z,2.67
2022-09-17T23:43:09.584Z,2.85
2022-09-17T23:45:35.954Z,2.72
2022-09-17T23:48:02.316Z,2.78
2022-09-17T23:50:28.714Z,2.55
2022-09-17T23:52:55.048Z,3.53
2022-09-17T23:55:21.450Z,2.28
2022-09-17T23:57:47.795Z,2.60
